Time;durP1;ratioP1;P1;durP2;ratioP2;P2;SDS_P1;SDS_P2;PMS_P1;PMS_P2;Temp;Humidity;BMP_temperature;BMP_pressure;BME280_temperature;BME280_humidity;BME280_pressure;Samples;Min_cycle;Max_cycle;Signal;HPM_P1;HPM_P2
2022/07/02 00:01:00;;;;;;;8.80;4.60;;;;;;;16.05;100.00;100461.92;1658232;86;21537;-71
2022/07/02 00:03:36;;;;;;;8.98;5.72;;;;;;;16.09;100.00;100463.47;1657924;86;21084;-71
2022/07/02 00:06:04;;;;;;;7.58;4.97;;;;;;;16.10;100.00;100465.20;1658248;86;21109;-71
2022/07/02 00:08:31;;;;;;;16.52;5.37;;;;;;;16.11;100.00;100461.59;1657958;86;21072;-71
2022/07/02 00:10:59;;;;;;;9.43;5.80;;;;;;;16.14;100.00;100458.76;1658037;86;21116;-71
2022/07/02 00:13:27;;;;;;;6.37;4.70;;;;;;;16.18;100.00;100459.94;1658155;86;21545;-71
2022/07/02 00:15:54;;;;;;;8.43;4.67;;;;;;;16.21;100.00;100460.61;1658372;86;21347;-72
2022/07/02 00:18:20;;;;;;;7.60;5.10;;;;;;;16.24;100.00;100465.78;1657868;86;21154;-72
2022/07/02 00:20:48;;;;;;;8.13;4.62;;;;;;;16.27;100.00;100470.06;1657937;86;21089;-71
2022/07/02 00:23:15;;;;;;;8.48;5.37;;;;;;;16.30;100.00;100468.55;1657989;86;21144;-70
2022/07/02 00:25:46;;;;;;;8.45;4.70;;;;;;;16.29;100.00;100474.83;1658153;86;21128;-71
2022/07/02 00:28:16;;;;;;;13.38;5.00;;;;;;;16.26;100.00;100470.51;1657961;86;21580;-72
2022/07/02 00:30:46;;;;;;;9.13;5.20;;;;;;;16.27;100.00;100474.05;1658241;86;21094;-72
2022/07/02 00:33:14;;;;;;;11.40;5.12;;;;;;;16.23;100.00;100467.18;1658019;86;21072;-72
2022/07/02 00:35:42;;;;;;;8.28;4.80;;;;;;;16.22;100.00;100476.08;1658232;86;21066;-70
2022/07/02 00:38:09;;;;;;;10.55;5.08;;;;;;;16.21;100.00;100479.69;1658362;86;21117;-71
2022/07/02 00:40:36;;;;;;;10.13;5.30;;;;;;;16.19;100.00;100481.57;1657967;86;21077;-71
2022/07/02 00:43:02;;;;;;;11.80;5.33;;;;;;;16.15;100.00;100484.41;1658230;86;21120;-71
2022/07/02 00:45:29;;;;;;;11.35;5.67;;;;;;;16.15;100.00;100487.06;1658430;86;21109;-70
2022/07/02 00:47:56;;;;;;;10.93;5.58;;;;;;;16.14;100.00;100484.00;1658133;86;21073;-72
2022/07/02 00:50:23;;;;;;;11.75;5.87;;;;;;;16.14;100.00;100484.48;1658181;86;21073;-71
2022/07/02 00:52:50;;;;;;;11.30;6.42;;;;;;;16.17;100.00;100486.11;1659842;85;21001;-71
2022/07/02 00:55:19;;;;;;;11.48;6.08;;;;;;;16.23;100.00;100491.09;1703058;83;21923;-70
2022/07/02 00:57:46;;;;;;;11.43;6.30;;;;;;;16.35;100.00;100493.92;1712947;82;21006;-70
2022/07/02 01:00:17;;;;;;;11.48;6.22;;;;;;;16.45;100.00;100492.08;1713245;83;21014;-71
2022/07/02 01:02:44;;;;;;;13.10;6.67;;;;;;;16.51;100.00;100489.09;1713386;82;21050;-70
2022/07/02 01:05:20;;;;;;;9.73;6.62;;;;;;;16.54;100.00;100492.89;1712998;83;21060;-71
2022/07/02 01:10:52;;;;;;;10.40;5.97;;;;;;;16.58;100.00;100489.98;1713548;83;21081;-71
2022/07/02 01:13:19;;;;;;;9.78;6.08;;;;;;;16.61;100.00;100494.30;1713085;82;21077;-71
2022/07/02 01:15:45;;;;;;;13.95;5.90;;;;;;;16.62;100.00;100490.67;1703086;83;21076;-70
2022/07/02 01:18:17;;;;;;;12.15;5.72;;;;;;;16.64;100.00;100495.44;1712957;82;21064;-70
2022/07/02 01:20:42;;;;;;;10.63;6.10;;;;;;;16.66;100.00;100496.70;1713142;82;22112;-72
2022/07/02 01:23:08;;;;;;;10.60;5.62;;;;;;;16.69;100.00;100505.34;1713034;83;21025;-71
2022/07/02 01:25:36;;;;;;;12.20;5.12;;;;;;;16.73;100.00;100510.02;1713120;83;21062;-72
2022/07/02 01:28:03;;;;;;;7.97;5.55;;;;;;;16.76;100.00;100516.48;1712920;82;21227;-70
2022/07/02 01:30:30;;;;;;;11.35;5.87;;;;;;;16.80;100.00;100522.06;1713008;83;21109;-71
2022/07/02 01:32:59;;;;;;;7.83;5.03;;;;;;;16.85;100.00;100521.31;1712765;82;21037;-71
2022/07/02 01:35:25;;;;;;;9.45;5.17;;;;;;;16.92;100.00;100511.19;1713195;82;21049;-70
2022/07/02 01:37:52;;;;;;;8.08;5.20;;;;;;;16.98;100.00;100517.02;1713226;83;21491;-71
2022/07/02 01:40:19;;;;;;;10.63;5.33;;;;;;;17.09;100.00;100522.17;1713190;82;21022;-70
2022/07/02 01:42:46;;;;;;;7.33;5.45;;;;;;;17.12;100.00;100528.67;1713055;83;21077;-71
2022/07/02 01:45:13;;;;;;;9.28;5.15;;;;;;;17.17;100.00;100526.59;1713132;83;21114;-73
2022/07/02 01:47:39;;;;;;;10.82;4.92;;;;;;;17.22;99.97;100532.50;1713105;83;21038;-71
2022/07/02 01:50:08;;;;;;;10.55;5.20;;;;;;;17.25;99.58;100524.33;1712830;82;21061;-70
2022/07/02 01:52:35;;;;;;;12.18;5.55;;;;;;;17.27;99.28;100525.09;1709291;83;21037;-72
2022/07/02 01:55:02;;;;;;;11.65;5.33;;;;;;;17.32;98.46;100533.70;1689624;84;21563;-71
2022/07/02 01:57:33;;;;;;;9.75;4.78;;;;;;;17.35;98.18;100528.18;1658042;86;21569;-72
2022/07/02 01:59:57;;;;;;;10.30;5.12;;;;;;;17.38;97.72;100525.33;1657740;86;21529;-71
2022/07/02 02:02:24;;;;;;;8.88;4.97;;;;;;;17.43;97.42;100524.20;1657936;86;21109;-71
2022/07/02 02:04:52;;;;;;;10.10;5.03;;;;;;;17.43;97.24;100526.87;1658045;86;21069;-72
2022/07/02 02:07:20;;;;;;;7.87;5.12;;;;;;;17.45;96.78;100527.64;1658174;86;21063;-72
2022/07/02 02:09:47;;;;;;;11.33;5.05;;;;;;;17.43;97.09;100525.05;1658007;86;21616;-72
2022/07/02 02:12:14;;;;;;;10.80;5.00;;;;;;;17.43;97.12;100534.86;1658317;86;21053;-71
2022/07/02 02:14:40;;;;;;;6.97;4.72;;;;;;;17.41;96.89;100536.27;1658189;86;21129;-71
2022/07/02 02:17:07;;;;;;;8.78;4.83;;;;;;;17.42;97.27;100533.16;1658159;86;21136;-71
2022/07/02 02:19:35;;;;;;;10.30;5.42;;;;;;;17.40;96.81;100530.09;1658184;85;21093;-72
2022/07/02 02:22:02;;;;;;;13.10;5.40;;;;;;;17.40;96.74;100538.08;1657956;86;21156;-71
2022/07/02 02:24:29;;;;;;;9.65;5.55;;;;;;;17.40;96.76;100543.41;1658159;86;21056;-72
2022/07/02 02:26:56;;;;;;;12.45;5.33;;;;;;;17.42;96.52;100544.66;1658207;86;21097;-71
2022/07/02 02:29:23;;;;;;;9.58;5.45;;;;;;;17.43;96.35;100540.17;1658054;86;21065;-71
2022/07/02 02:31:49;;;;;;;9.98;5.30;;;;;;;17.44;96.22;100552.53;1658278;86;21046;-70
2022/07/02 02:34:16;;;;;;;8.28;5.42;;;;;;;17.47;96.17;100553.70;1658179;86;21817;-72
2022/07/02 02:36:42;;;;;;;7.78;5.15;;;;;;;17.47;96.30;100553.70;1658416;86;21065;-71
2022/07/02 02:39:09;;;;;;;13.18;5.83;;;;;;;17.49;95.57;100561.12;1658050;86;21052;-70
2022/07/02 02:41:36;;;;;;;12.63;5.70;;;;;;;17.49;95.82;100553.98;1658097;86;22153;-70
2022/07/02 02:44:03;;;;;;;11.85;5.50;;;;;;;17.48;96.25;100559.39;1658199;86;21113;-70
2022/07/02 02:46:30;;;;;;;12.18;5.15;;;;;;;17.46;96.21;100554.63;1657890;86;21237;-71
2022/07/02 02:48:56;;;;;;;11.25;5.60;;;;;;;17.46;96.29;100553.30;1658116;86;21093;-70
2022/07/02 02:51:23;;;;;;;10.88;5.50;;;;;;;17.48;95.83;100563.39;1658139;86;21121;-72
2022/07/02 02:53:49;;;;;;;14.80;5.10;;;;;;;17.52;95.68;100566.27;1676387;84;21069;-73
2022/07/02 02:56:16;;;;;;;12.80;5.08;;;;;;;17.56;95.17;100570.47;1712879;83;21093;-71
2022/07/02 02:58:43;;;;;;;9.48;5.33;;;;;;;17.63;94.04;100570.48;1712991;82;21073;-72
2022/07/02 03:01:10;;;;;;;11.65;5.20;;;;;;;17.70;94.19;100567.83;1713022;82;21530;-72
2022/07/02 03:03:38;;;;;;;12.35;5.80;;;;;;;17.70;93.93;100579.81;1712879;83;22056;-72
2022/07/02 03:06:05;;;;;;;10.53;5.00;;;;;;;17.75;93.59;100581.73;1712821;82;21159;-70
2022/07/02 03:08:32;;;;;;;8.88;5.28;;;;;;;17.81;93.54;100578.73;1712976;83;21570;-71
2022/07/02 03:11:00;;;;;;;7.62;4.75;;;;;;;17.87;92.72;100584.16;1713019;82;21225;-72
2022/07/02 03:13:27;;;;;;;12.43;5.30;;;;;;;17.95;92.71;100586.37;1712836;83;21210;-71
2022/07/02 03:15:54;;;;;;;9.65;5.00;;;;;;;18.01;92.22;100588.66;1712928;83;21049;-71
2022/07/02 03:18:22;;;;;;;15.20;5.25;;;;;;;18.06;91.04;100583.92;1712903;83;22138;-71
2022/07/02 03:20:49;;;;;;;10.48;4.97;;;;;;;18.14;90.91;100589.63;1712972;83;21041;-71
2022/07/02 03:23:15;;;;;;;6.62;4.85;;;;;;;18.21;90.10;100589.63;1712821;83;21776;-71
2022/07/02 03:25:42;;;;;;;9.05;4.80;;;;;;;18.33;90.03;100592.48;1712829;83;21045;-72
2022/07/02 03:28:09;;;;;;;9.63;5.03;;;;;;;18.41;89.41;100594.22;1713081;83;21097;-71
2022/07/02 03:30:36;;;;;;;7.50;4.42;;;;;;;18.49;88.57;100600.39;1713019;83;21066;-70
2022/07/02 03:33:02;;;;;;;18.60;5.08;;;;;;;18.58;87.75;100593.15;1713311;83;21305;-72
2022/07/02 03:35:30;;;;;;;8.23;4.45;;;;;;;18.66;86.31;100603.72;1712860;83;21638;-71
2022/07/02 03:37:57;;;;;;;7.62;4.58;;;;;;;18.75;85.53;100607.63;1712981;82;21061;-72
2022/07/02 03:40:24;;;;;;;8.98;4.60;;;;;;;18.82;85.05;100606.79;1713110;82;21030;-72
2022/07/02 03:42:51;;;;;;;10.85;4.83;;;;;;;18.90;84.46;100608.96;1713220;83;21042;-70
2022/07/02 03:45:19;;;;;;;7.00;4.55;;;;;;;18.94;82.89;100615.33;1712968;83;21073;-71
2022/07/02 03:47:46;;;;;;;10.32;4.67;;;;;;;18.99;83.50;100605.21;1713299;83;21047;-71
2022/07/02 03:50:13;;;;;;;9.78;4.67;;;;;;;19.10;83.14;100607.69;1713001;83;21038;-71
2022/07/02 03:52:40;;;;;;;8.20;4.47;;;;;;;19.21;82.24;100601.13;1707913;83;21577;-71
2022/07/02 03:55:08;;;;;;;8.98;4.75;;;;;;;19.29;80.95;100608.17;1649983;86;21130;-72
2022/07/02 03:57:35;;;;;;;14.05;5.33;;;;;;;19.36;81.16;100601.95;1653124;86;21074;-72
2022/07/02 04:00:05;;;;;;;11.50;4.80;;;;;;;19.48;79.98;100602.47;1653020;86;21125;-71
2022/07/02 04:02:34;;;;;;;11.22;4.58;;;;;;;19.63;79.30;100604.61;1652417;86;21077;-71
2022/07/02 04:05:01;;;;;;;12.50;4.83;;;;;;;19.79;79.01;100604.45;1653219;86;21081;-71
2022/07/02 04:07:28;;;;;;;11.68;4.45;;;;;;;19.91;77.70;100599.60;1653053;86;21069;-71
2022/07/02 04:09:55;;;;;;;13.88;4.42;;;;;;;19.98;76.84;100601.38;1653299;86;21117;-72
2022/07/02 04:12:21;;;;;;;6.33;4.47;;;;;;;20.12;77.23;100599.94;1653297;86;22237;-71
2022/07/02 04:14:48;;;;;;;10.55;4.25;;;;;;;20.24;75.20;100604.41;1653137;86;21105;-71
2022/07/02 04:17:14;;;;;;;7.58;4.45;;;;;;;20.31;74.60;100601.71;1653073;86;21045;-71
2022/07/02 04:19:41;;;;;;;12.88;4.00;;;;;;;20.38;73.94;100598.58;1653304;86;21070;-70
2022/07/02 04:22:08;;;;;;;7.65;3.90;;;;;;;20.28;73.46;100604.58;1686173;85;21068;-70
2022/07/02 04:24:34;;;;;;;11.70;4.10;;;;;;;20.25;74.69;100592.77;1686568;85;21101;-70
2022/07/02 04:27:01;;;;;;;12.33;4.60;;;;;;;20.24;72.73;100592.38;1626460;86;21109;-71
2022/07/02 04:29:27;;;;;;;7.78;4.22;;;;;;;20.28;73.60;100601.91;1653397;86;21497;-72
2022/07/02 04:31:54;;;;;;;8.80;4.12;;;;;;;20.36;73.74;100616.55;1652977;86;21065;-71
2022/07/02 04:34:21;;;;;;;8.18;4.12;;;;;;;20.43;72.32;100622.72;1653417;86;21569;-72
2022/07/02 04:36:47;;;;;;;8.73;3.85;;;;;;;20.51;72.58;100614.14;1653369;86;21517;-71
2022/07/02 04:39:14;;;;;;;7.37;4.87;;;;;;;20.59;72.81;100617.18;1686440;85;21053;-70
2022/07/02 04:41:40;;;;;;;13.70;5.10;;;;;;;20.68;71.59;100627.69;1653336;86;21580;-72
2022/07/02 04:44:07;;;;;;;8.60;4.70;;;;;;;20.74;72.14;100626.77;1653227;86;21054;-72
2022/07/02 04:46:34;;;;;;;6.72;4.12;;;;;;;20.83;70.63;100635.11;1686579;85;21108;-71
2022/07/02 04:49:01;;;;;;;13.32;4.70;;;;;;;20.94;70.83;100631.18;1686224;85;21797;-72
2022/07/02 04:51:27;;;;;;;11.65;4.40;;;;;;;21.10;70.32;100629.59;1685814;85;21080;-71
2022/07/02 04:53:54;;;;;;;8.95;4.00;;;;;;;21.25;70.62;100635.62;1709065;83;21585;-71
2022/07/02 04:56:21;;;;;;;8.85;4.17;;;;;;;21.48;70.45;100637.97;1725284;82;21069;-71
2022/07/02 04:58:48;;;;;;;4.78;3.90;;;;;;;21.71;68.24;100642.45;1725750;83;20998;-72
2022/07/02 05:01:14;;;;;;;6.90;4.00;;;;;;;21.87;68.08;100639.45;1726006;83;21108;-72
2022/07/02 05:03:41;;;;;;;8.35;4.28;;;;;;;22.04;67.74;100650.72;1725905;83;21073;-72
2022/07/02 05:06:07;;;;;;;6.35;3.60;;;;;;;22.23;66.68;100650.20;1725870;82;21121;-71
2022/07/02 05:08:34;;;;;;;6.58;4.20;;;;;;;22.34;66.18;100644.36;1725957;82;21690;-71
2022/07/02 05:11:01;;;;;;;8.23;3.92;;;;;;;22.44;64.82;100653.03;1726064;82;21057;-72
2022/07/02 05:13:28;;;;;;;8.08;3.80;;;;;;;22.57;64.29;100651.10;1725839;82;21205;-71
2022/07/02 05:15:55;;;;;;;10.43;3.47;;;;;;;22.64;62.45;100657.69;1725826;83;21088;-71
2022/07/02 05:18:24;;;;;;;13.32;4.22;;;;;;;22.61;62.47;100659.25;1725938;82;21005;-71
2022/07/02 05:20:51;;;;;;;14.50;4.37;;;;;;;22.59;61.98;100657.17;1725972;82;21581;-72
2022/07/02 05:23:23;;;;;;;6.97;3.60;;;;;;;22.54;62.81;100666.08;1725903;83;21103;-73
2022/07/02 05:25:47;;;;;;;10.10;3.42;;;;;;;22.65;61.92;100663.91;1725811;82;21533;-71
2022/07/02 05:28:16;;;;;;;11.90;4.05;;;;;;;22.83;60.65;100651.70;1725882;82;21620;-73
2022/07/02 05:30:42;;;;;;;14.47;4.30;;;;;;;23.04;60.08;100659.88;1726019;83;21077;-71
2022/07/02 05:33:09;;;;;;;19.62;4.67;;;;;;;23.33;60.30;100666.04;1726110;83;21056;-71
2022/07/02 05:35:35;;;;;;;8.00;4.00;;;;;;;23.55;59.21;100661.95;1725939;83;21081;-71
2022/07/02 05:38:02;;;;;;;12.90;3.45;;;;;;;23.69;58.15;100654.57;1726048;83;21125;-71
2022/07/02 05:40:30;;;;;;;12.78;3.60;;;;;;;23.74;57.63;100658.63;1725864;83;20998;-72
2022/07/02 05:42:56;;;;;;;10.50;3.72;;;;;;;23.75;56.52;100661.67;1725942;83;21558;-73
2022/07/02 05:45:23;;;;;;;8.65;3.10;;;;;;;23.80;56.13;100659.94;1726249;83;21053;-72
2022/07/02 05:47:49;;;;;;;8.88;3.45;;;;;;;23.86;54.54;100663.46;1725884;83;21044;-72
2022/07/02 05:50:16;;;;;;;6.60;3.05;;;;;;;23.96;54.79;100660.34;1726218;83;21070;-71
2022/07/02 05:52:43;;;;;;;7.78;3.25;;;;;;;24.17;54.94;100653.61;1719956;83;21116;-73
2022/07/02 05:55:09;;;;;;;6.33;3.02;;;;;;;24.38;54.48;100653.59;1691868;84;21048;-71
2022/07/02 05:57:37;;;;;;;9.73;2.90;;;;;;;24.44;53.82;100648.19;1691550;84;21053;-71
2022/07/02 06:00:06;;;;;;;7.53;3.10;;;;;;;24.63;53.75;100655.53;1658240;86;21109;-72
2022/07/02 06:02:32;;;;;;;7.42;2.90;;;;;;;24.81;53.54;100649.86;1658318;86;21203;-72
2022/07/02 06:04:59;;;;;;;6.25;3.22;;;;;;;25.07;50.91;100655.61;1658001;86;21117;-72
2022/07/02 06:07:42;;;;;;;8.73;2.95;;;;;;;25.14;46.59;100657.25;1658712;86;21053;-71
2022/07/02 06:10:10;;;;;;;8.95;3.10;;;;;;;25.16;45.67;100657.97;1658280;86;21065;-72
2022/07/02 06:12:39;;;;;;;6.53;3.10;;;;;;;25.23;45.71;100669.94;1658160;86;21048;-73
2022/07/02 06:15:06;;;;;;;9.40;2.85;;;;;;;25.27;45.77;100674.06;1658167;86;21808;-71
2022/07/02 06:17:33;;;;;;;18.20;3.45;;;;;;;25.48;44.58;100665.86;1658018;86;21026;-71
2022/07/02 06:20:00;;;;;;;6.55;2.70;;;;;;;25.61;44.35;100681.78;1658275;86;21069;-72
2022/07/02 06:22:27;;;;;;;10.80;2.92;;;;;;;25.72;44.10;100676.26;1657928;86;21092;-73
2022/07/02 06:24:55;;;;;;;7.95;2.83;;;;;;;25.90;41.33;100680.95;1658196;86;21034;-71
2022/07/02 06:27:22;;;;;;;9.38;3.02;;;;;;;26.07;40.67;100677.55;1658105;86;21883;-71
2022/07/02 06:29:49;;;;;;;5.92;2.70;;;;;;;26.27;40.26;100682.91;1657995;86;21081;-69
2022/07/02 06:32:16;;;;;;;13.25;3.30;;;;;;;26.31;40.68;100677.06;1658337;86;21203;-72
2022/07/02 06:34:44;;;;;;;6.87;2.60;;;;;;;26.47;39.10;100675.11;1658183;86;21105;-72
2022/07/02 06:37:10;;;;;;;6.95;2.98;;;;;;;26.71;38.28;100676.48;1658312;86;21105;-72
2022/07/02 06:39:37;;;;;;;4.85;2.50;;;;;;;26.83;38.53;100673.95;1658259;86;21788;-72
2022/07/02 06:42:20;;;;;;;13.22;2.45;;;;;;;27.00;37.04;100670.95;1658064;86;20998;-73
2022/07/02 06:44:48;;;;;;;13.50;2.58;;;;;;;26.99;37.88;100682.27;1633163;86;21076;-71
2022/07/02 06:47:15;;;;;;;10.38;2.33;;;;;;;27.22;37.45;100671.09;1658289;86;21101;-73
2022/07/02 06:49:42;;;;;;;7.37;2.70;;;;;;;27.44;35.65;100678.41;1658205;86;21057;-71
2022/07/02 06:52:11;;;;;;;6.33;3.00;;;;;;;27.31;35.98;100672.88;1657934;86;22255;-72
2022/07/02 06:54:38;;;;;;;9.05;2.22;;;;;;;27.24;36.13;100678.55;1689997;84;21044;-74
2022/07/02 06:57:05;;;;;;;10.85;2.37;;;;;;;27.30;35.59;100681.98;1670790;85;21076;-73
2022/07/02 06:59:33;;;;;;;9.30;2.60;;;;;;;27.30;34.83;100676.56;1720774;83;21069;-72
2022/07/02 07:01:59;;;;;;;12.70;2.83;;;;;;;27.25;35.58;100679.39;1720984;82;21131;-72
2022/07/02 07:04:29;;;;;;;7.08;2.40;;;;;;;27.24;36.04;100678.55;1720869;83;21188;-72
2022/07/02 07:06:56;;;;;;;8.63;2.60;;;;;;;27.44;34.39;100674.35;1720918;83;21049;-70
2022/07/02 07:09:23;;;;;;;7.08;2.30;;;;;;;27.70;34.19;100682.06;1721042;83;21605;-74
2022/07/02 07:11:50;;;;;;;14.00;3.12;;;;;;;27.96;34.55;100688.08;1720827;83;21531;-72
2022/07/02 07:14:18;;;;;;;4.47;2.30;;;;;;;28.05;34.05;100684.43;1720829;83;21081;-73
2022/07/02 07:16:44;;;;;;;6.87;2.20;;;;;;;27.90;34.62;100688.69;1720743;82;21815;-73
2022/07/02 07:19:11;;;;;;;13.72;2.40;;;;;;;27.77;34.42;100691.77;1720762;82;21081;-72
2022/07/02 07:21:40;;;;;;;5.47;2.08;;;;;;;27.81;34.71;100691.31;1720719;82;21056;-72
2022/07/02 07:24:07;;;;;;;9.75;2.12;;;;;;;28.06;32.63;100688.82;1720910;82;21045;-73
2022/07/02 07:26:37;;;;;;;4.87;1.92;;;;;;;28.14;31.99;100688.91;1720571;82;21572;-72
2022/07/02 07:29:06;;;;;;;11.18;2.20;;;;;;;27.94;32.74;100697.70;1720882;83;21172;-72
2022/07/02 07:31:34;;;;;;;8.85;2.52;;;;;;;27.89;33.31;100693.77;1720819;82;21096;-72
2022/07/02 07:34:01;;;;;;;6.65;2.58;;;;;;;27.79;32.61;100693.31;1720947;83;21105;-73
2022/07/02 07:36:28;;;;;;;10.23;2.58;;;;;;;27.72;33.45;100699.48;1720570;83;21045;-72
2022/07/02 07:38:54;;;;;;;7.08;2.20;;;;;;;27.79;34.09;100694.67;1721070;82;21062;-73
2022/07/02 07:41:22;;;;;;;4.17;2.33;;;;;;;27.97;33.98;100697.88;1720598;82;21108;-72
2022/07/02 07:43:49;;;;;;;10.90;2.58;;;;;;;28.28;33.02;100692.05;1720574;83;21403;-72
2022/07/02 07:46:16;;;;;;;7.35;2.22;;;;;;;28.58;31.83;100684.83;1720703;83;21018;-72
2022/07/02 07:48:43;;;;;;;9.73;2.60;;;;;;;28.90;31.86;100686.52;1720599;83;21064;-72
2022/07/02 07:51:09;;;;;;;14.58;2.62;;;;;;;29.09;31.93;100682.73;1720626;82;21085;-73
2022/07/02 07:53:36;;;;;;;6.00;2.33;;;;;;;29.11;31.69;100683.42;1702041;82;21116;-73
2022/07/02 07:56:03;;;;;;;4.75;1.87;;;;;;;29.16;31.60;100681.05;1683039;84;21069;-73
2022/07/02 07:58:30;;;;;;;7.92;2.20;;;;;;;29.30;31.25;100691.27;1678534;85;21049;-73
2022/07/02 08:00:57;;;;;;;5.55;2.15;;;;;;;29.26;30.49;100696.67;1645637;87;21126;-72
2022/07/02 08:03:24;;;;;;;8.00;1.90;;;;;;;29.17;29.88;100697.17;1659274;85;21045;-72
2022/07/02 08:05:53;;;;;;;3.15;1.70;;;;;;;29.18;30.80;100693.95;1645746;87;21116;-72
2022/07/02 08:09:08;;;;;;;7.25;2.20;;;;;;;29.13;31.58;100694.95;1784739;79;22320;-73
2022/07/02 08:11:35;;;;;;;5.78;2.12;;;;;;;29.16;31.52;100700.04;1748669;82;20969;-74
2022/07/02 08:14:02;;;;;;;9.33;2.42;;;;;;;29.32;31.08;100689.75;1748163;82;21101;-72
2022/07/02 08:16:31;;;;;;;12.00;2.70;;;;;;;29.23;31.56;100692.94;1748137;82;20965;-75
2022/07/02 08:18:57;;;;;;;7.40;2.35;;;;;;;28.88;33.14;100704.30;1748116;82;20977;-73
2022/07/02 08:21:24;;;;;;;4.37;2.10;;;;;;;28.90;32.91;100704.98;1748113;82;21041;-74
2022/07/02 08:23:50;;;;;;;8.45;2.20;;;;;;;29.30;32.38;100700.76;1748551;82;21105;-72
2022/07/02 08:26:17;;;;;;;5.20;2.10;;;;;;;29.75;30.62;100702.73;1748040;82;22153;-72
2022/07/02 08:28:44;;;;;;;5.15;1.77;;;;;;;30.05;30.40;100699.89;1747942;82;21016;-72
2022/07/02 08:31:12;;;;;;;2.90;1.67;;;;;;;30.25;28.76;100705.32;1747879;82;21069;-73
2022/07/02 08:33:39;;;;;;;8.38;2.40;;;;;;;30.03;29.15;100702.77;1747474;82;21065;-72
2022/07/02 08:36:06;;;;;;;10.08;2.50;;;;;;;29.81;29.76;100708.34;1747730;82;21069;-72
2022/07/02 08:38:33;;;;;;;8.23;2.22;;;;;;;29.57;30.25;100714.57;1748111;82;21124;-72
2022/07/02 08:41:01;;;;;;;10.08;2.70;;;;;;;29.33;31.05;100701.77;1747715;81;21128;-72
2022/07/02 08:43:28;;;;;;;8.43;2.42;;;;;;;29.28;30.77;100704.98;1747971;82;21018;-73
2022/07/02 08:45:55;;;;;;;23.47;2.83;;;;;;;29.52;31.10;100701.14;1747963;82;21108;-73
2022/07/02 08:48:23;;;;;;;8.63;3.90;;;;;;;29.65;30.60;100698.80;1747805;82;21065;-72
2022/07/02 08:50:50;;;;;;;8.18;2.50;;;;;;;29.71;30.72;100704.95;1747707;82;21312;-75
2022/07/02 08:53:17;;;;;;;7.87;2.45;;;;;;;29.88;30.20;100702.58;1747696;82;21010;-74
2022/07/02 08:55:44;;;;;;;5.08;2.40;;;;;;;29.65;29.97;100700.16;1747885;82;21013;-73
2022/07/02 08:58:11;;;;;;;6.50;1.98;;;;;;;29.70;30.25;100700.52;1748199;82;21090;-72
2022/07/02 09:00:38;;;;;;;5.58;2.10;;;;;;;29.85;30.38;100701.57;1718670;82;21136;-73
2022/07/02 09:03:05;;;;;;;7.03;2.20;;;;;;;30.10;30.89;100701.59;1747912;81;21097;-72
2022/07/02 09:05:32;;;;;;;6.42;2.10;;;;;;;30.42;29.19;100698.53;1718458;82;21050;-73
2022/07/02 09:07:58;;;;;;;6.28;2.30;;;;;;;30.61;29.34;100696.78;1748142;82;20998;-73
2022/07/02 09:10:26;;;;;;;7.75;2.27;;;;;;;30.75;28.25;100687.06;1748922;82;21201;-73
2022/07/02 09:12:55;;;;;;;6.78;1.80;;;;;;;30.82;29.11;100691.29;1748730;81;21037;-73
2022/07/02 09:15:21;;;;;;;6.70;2.10;;;;;;;31.01;29.30;100690.89;1748763;82;21969;-72
2022/07/02 09:17:48;;;;;;;5.47;2.02;;;;;;;31.35;28.75;100689.70;1748541;82;21014;-73
2022/07/02 09:20:14;;;;;;;8.45;2.20;;;;;;;31.56;27.66;100697.27;1748644;82;21093;-71
2022/07/02 09:22:46;;;;;;;6.53;2.10;;;;;;;31.52;27.80;100702.23;1748129;82;21090;-72
2022/07/02 09:25:19;;;;;;;4.12;2.15;;;;;;;31.38;27.19;100700.22;1748482;82;21069;-73
2022/07/02 09:27:47;;;;;;;3.60;2.10;;;;;;;31.46;27.47;100701.58;1748126;82;21184;-72
2022/07/02 09:30:18;;;;;;;4.35;2.40;;;;;;;31.58;26.60;100697.09;1748642;82;21070;-72
2022/07/02 09:32:45;;;;;;;;;;;;;;;31.76;27.29;100697.13;1750859;82;21462;-71
2022/07/02 09:35:22;;;;;;;9.93;3.40;;;;;;;32.03;26.90;100706.33;1748736;82;20151;-72
2022/07/02 09:37:50;;;;;;;11.75;2.33;;;;;;;31.93;26.06;100706.03;1748444;81;21084;-72
2022/07/02 09:40:17;;;;;;;10.80;2.27;;;;;;;31.87;26.64;100704.03;1748571;82;21097;-72
2022/07/02 09:42:47;;;;;;;10.18;2.25;;;;;;;32.16;25.17;100701.08;1748312;82;21537;-72
2022/07/02 09:45:15;;;;;;;4.72;1.92;;;;;;;32.36;26.13;100700.89;1748745;82;21045;-72
2022/07/02 09:47:51;;;;;;;4.78;1.80;;;;;;;32.73;25.46;100703.26;1748120;82;21052;-73
2022/07/02 09:50:20;;;;;;;6.83;2.02;;;;;;;32.97;25.08;100702.66;1748577;82;21006;-72
2022/07/02 09:52:55;;;;;;;6.62;1.90;;;;;;;33.01;24.97;100693.03;1742379;82;21796;-73
2022/07/02 09:55:31;;;;;;;7.12;2.30;;;;;;;32.85;24.99;100705.52;1718564;83;20989;-74
2022/07/02 09:58:00;;;;;;;5.03;2.20;;;;;;;32.50;24.01;100706.03;1718300;83;21050;-73
2022/07/02 10:00:30;;;;;;;4.90;2.00;;;;;;;32.36;25.26;100706.34;1718363;83;21053;-72
2022/07/02 10:02:58;;;;;;;4.90;2.00;;;;;;;32.66;24.40;100703.68;1718392;83;21100;-74
2022/07/02 10:05:30;;;;;;;4.10;2.00;;;;;;;32.78;24.21;100700.84;1718660;83;21088;-72
2022/07/02 10:08:01;;;;;;;8.60;2.08;;;;;;;32.83;24.59;100695.31;1714736;83;21049;-72
2022/07/02 10:10:34;;;;;;;;;;;;;;;32.87;24.49;100687.08;1707828;84;21057;-73
2022/07/02 10:12:57;;;;;;;3.47;1.95;;;;;;;33.00;22.38;100688.63;1705060;83;20169;-72
2022/07/02 10:15:25;;;;;;;4.53;2.02;;;;;;;32.90;22.65;100688.06;1704880;84;21065;-72
2022/07/02 10:17:59;;;;;;;3.35;1.65;;;;;;;32.84;23.30;100691.56;1704734;84;21116;-74
2022/07/02 10:20:23;;;;;;;4.03;2.10;;;;;;;32.81;22.81;100699.09;1704547;84;21120;-72
2022/07/02 10:22:50;;;;;;;5.85;2.00;;;;;;;32.71;23.18;100701.23;1704629;84;21006;-73
2022/07/02 10:25:19;;;;;;;5.92;2.12;;;;;;;32.67;24.19;100697.21;1704789;84;21598;-74
2022/07/02 10:27:47;;;;;;;4.25;1.92;;;;;;;32.75;24.59;100691.64;1704506;83;21514;-72
2022/07/02 10:30:19;;;;;;;4.67;1.98;;;;;;;32.95;24.02;100691.09;1704791;84;21062;-72
2022/07/02 10:33:15;;;;;;;3.35;1.62;;;;;;;33.17;23.49;100702.40;1684734;84;21077;-72
2022/07/02 10:35:42;;;;;;;7.97;1.92;;;;;;;32.86;23.91;100690.86;1704995;84;21867;-73
2022/07/02 10:38:09;;;;;;;4.85;1.60;;;;;;;32.94;23.37;100694.83;1704701;84;21621;-72
2022/07/02 10:40:48;;;;;;;9.95;1.70;;;;;;;33.14;23.56;100684.22;1704997;84;21066;-72
2022/07/02 10:43:19;;;;;;;7.30;1.90;;;;;;;33.41;22.29;100688.11;1704999;84;26919;-73
2022/07/02 10:45:46;;;;;;;6.25;1.60;;;;;;;33.07;23.00;100691.48;1705013;84;21038;-72
2022/07/02 10:48:14;;;;;;;5.53;1.65;;;;;;;32.80;23.92;100686.98;1704910;84;21031;-73
2022/07/02 10:50:46;;;;;;;5.28;1.75;;;;;;;32.87;23.43;100691.17;1705133;84;21109;-73
2022/07/02 10:53:24;;;;;;;4.75;1.65;;;;;;;32.91;23.84;100692.50;1715854;82;21062;-73
2022/07/02 10:56:04;;;;;;;6.10;2.08;;;;;;;32.83;23.59;100692.58;1714417;82;21589;-73
2022/07/02 10:58:34;;;;;;;5.87;1.87;;;;;;;32.49;23.85;100691.25;1734196;82;21085;-73
2022/07/02 11:01:23;;;;;;;5.25;1.85;;;;;;;32.21;24.64;100694.59;1734513;82;21041;-73
2022/07/02 11:04:01;;;;;;;3.02;2.05;;;;;;;32.10;25.06;100690.42;1734359;82;21022;-72
2022/07/02 11:06:31;;;;;;;6.40;1.62;;;;;;;32.39;24.95;100688.28;1734507;82;26497;-73
2022/07/02 11:09:02;;;;;;;2.75;1.70;;;;;;;32.73;24.01;100673.26;1734183;81;21214;-72
2022/07/02 11:11:36;;;;;;;6.77;2.80;;;;;;;32.78;23.30;100669.47;1734384;82;21066;-73
2022/07/02 11:14:17;;;;;;;7.12;3.52;;;;;;;32.54;23.38;100673.31;1734140;82;21214;-72
2022/07/02 11:16:50;;;;;;;4.37;1.70;;;;;;;32.29;24.06;100676.78;1734251;82;21089;-71
2022/07/02 11:19:26;;;;;;;5.78;3.42;;;;;;;32.04;23.30;100672.08;1734199;82;21062;-72
2022/07/02 11:21:59;;;;;;;6.97;2.15;;;;;;;31.86;24.10;100671.00;1734480;82;21495;-71
2022/07/02 11:24:29;;;;;;;5.47;1.75;;;;;;;31.89;24.32;100669.30;1734176;82;21084;-74
2022/07/02 11:26:55;;;;;;;4.30;1.50;;;;;;;32.04;23.64;100660.34;1734446;82;21093;-71
2022/07/02 11:29:22;;;;;;;3.77;1.60;;;;;;;32.29;23.93;100661.79;1734032;82;21496;-72